Time;durP1;ratioP1;P1;durP2;ratioP2;P2;SDS_P1;SDS_P2;PMS_P1;PMS_P2;Temp;Humidity;BMP_temperature;BMP_pressure;BME280_temperature;BME280_humidity;BME280_pressure;Samples;Min_cycle;Max_cycle;Signal;HPM_P1;HPM_P2
2022/09/22 00:00:21;;;;;;;0.70;0.68;;;;;;;14.25;100.00;101029.50;4985867;28;20103;-75
2022/09/22 00:02:47;;;;;;;1.70;1.13;;;;;;;14.25;100.00;101043.03;4991763;28;20056;-74
2022/09/22 00:05:13;;;;;;;0.40;0.40;;;;;;;14.23;100.00;101034.25;4990808;28;20038;-74
2022/09/22 00:07:39;;;;;;;0.47;0.47;;;;;;;14.26;100.00;101037.44;4985314;28;20042;-75
2022/09/22 00:10:06;;;;;;;0.70;0.70;;;;;;;14.26;100.00;101031.16;4973615;28;20392;-75
2022/09/22 00:12:32;;;;;;;0.60;0.60;;;;;;;14.19;100.00;101023.00;5005919;28;20378;-74
2022/09/22 00:14:57;;;;;;;0.30;0.30;;;;;;;14.26;100.00;101014.94;4970596;28;20104;-76
2022/09/22 00:17:23;;;;;;;0.50;0.45;;;;;;;14.24;100.00;101019.72;5000738;28;20030;-74
2022/09/22 00:19:49;;;;;;;0.40;0.40;;;;;;;14.25;100.00;101008.69;4991439;28;20033;-74
2022/09/22 00:22:14;;;;;;;0.50;0.50;;;;;;;14.28;100.00;101012.88;4985692;28;20038;-74
2022/09/22 00:24:41;;;;;;;0.30;0.30;;;;;;;14.27;100.00;101014.75;4986613;28;20060;-75
2022/09/22 00:27:09;;;;;;;0.38;0.38;;;;;;;14.25;100.00;100999.75;5004886;28;20030;-75
2022/09/22 00:29:35;;;;;;;0.40;0.40;;;;;;;14.24;100.00;100981.88;5001178;28;20066;-74
2022/09/22 00:32:01;;;;;;;0.40;0.40;;;;;;;14.30;100.00;100995.44;5000412;28;20077;-76
2022/09/22 00:34:27;;;;;;;0.57;0.57;;;;;;;14.33;100.00;100983.38;4999992;28;20044;-74
2022/09/22 00:36:53;;;;;;;0.40;0.40;;;;;;;14.34;100.00;100976.09;4982454;28;20050;-75
2022/09/22 00:39:19;;;;;;;0.30;0.30;;;;;;;14.34;100.00;100981.50;5009534;28;20038;-74
2022/09/22 00:41:47;;;;;;;0.40;0.40;;;;;;;14.33;100.00;100988.78;4988361;28;20286;-75
2022/09/22 00:44:25;;;;;;;0.40;0.40;;;;;;;14.37;100.00;100983.81;4988372;28;20092;-74
2022/09/22 00:47:05;;;;;;;0.40;0.40;;;;;;;14.40;100.00;100992.41;5026465;28;20033;-74
2022/09/22 00:49:33;;;;;;;0.68;0.50;;;;;;;14.41;100.00;100993.22;4999459;28;20096;-76
2022/09/22 00:51:59;;;;;;;0.30;0.30;;;;;;;14.41;100.00;100991.34;4986250;28;20038;-75
2022/09/22 00:54:25;;;;;;;0.38;0.38;;;;;;;14.45;100.00;100989.94;4985896;28;20117;-74
2022/09/22 00:57:05;;;;;;;0.30;0.30;;;;;;;14.49;100.00;100987.69;4997621;28;20192;-75
2022/09/22 00:59:31;;;;;;;0.30;0.30;;;;;;;14.50;100.00;100992.91;4999795;28;20045;-76
2022/09/22 01:01:56;;;;;;;0.30;0.30;;;;;;;14.54;100.00;100992.53;4987188;28;20388;-75
2022/09/22 01:04:22;;;;;;;0.47;0.47;;;;;;;14.53;100.00;100980.88;4969476;28;20164;-74
2022/09/22 01:06:49;;;;;;;0.90;0.70;;;;;;;14.57;100.00;100986.72;5005511;28;20037;-74
2022/09/22 01:09:15;;;;;;;0.40;0.40;;;;;;;14.46;100.00;100969.97;4993312;28;20200;-75
2022/09/22 01:11:40;;;;;;;0.30;0.30;;;;;;;14.60;100.00;100983.63;4994671;28;20575;-75
2022/09/22 01:14:30;;;;;;;0.35;0.35;;;;;;;14.60;100.00;100980.91;4992065;28;20473;-75
2022/09/22 01:16:59;;;;;;;0.30;0.30;;;;;;;14.57;100.00;100981.31;5022283;28;20049;-74
2022/09/22 01:19:51;;;;;;;0.30;0.30;;;;;;;14.56;100.00;100974.25;5007179;28;20033;-75
2022/09/22 01:22:41;;;;;;;0.60;0.50;;;;;;;14.51;100.00;100972.09;5019484;28;20041;-75
2022/09/22 01:25:38;;;;;;;0.30;0.30;;;;;;;14.49;100.00;100968.75;4993464;28;20481;-75
2022/09/22 01:28:22;;;;;;;0.38;0.38;;;;;;;14.50;100.00;100962.28;5008838;28;20488;-75
2022/09/22 01:30:59;;;;;;;0.30;0.30;;;;;;;14.51;100.00;100956.69;4988963;28;20087;-75
2022/09/22 01:33:32;;;;;;;0.30;0.30;;;;;;;14.55;100.00;100970.69;4992221;28;20124;-75
2022/09/22 01:36:04;;;;;;;0.30;0.30;;;;;;;14.57;100.00;100962.38;5008820;28;20029;-75
2022/09/22 01:38:42;;;;;;;0.30;0.30;;;;;;;14.58;100.00;100958.63;5006825;28;20080;-75
2022/09/22 01:41:22;;;;;;;0.55;0.55;;;;;;;14.59;100.00;100961.16;5008331;28;20034;-76
2022/09/22 01:43:57;;;;;;;0.40;0.40;;;;;;;14.46;100.00;100928.56;4989152;28;20038;-75
2022/09/22 01:46:33;;;;;;;0.30;0.30;;;;;;;14.60;100.00;100957.41;5002616;28;20507;-76
2022/09/22 01:49:02;;;;;;;0.30;0.30;;;;;;;14.63;100.00;100953.47;4978342;28;20428;-75
2022/09/22 01:51:37;;;;;;;0.30;0.30;;;;;;;14.64;100.00;100955.16;5005091;28;20065;-76
2022/09/22 01:54:29;;;;;;;0.30;0.30;;;;;;;14.63;100.00;100945.34;5004115;28;20084;-75
2022/09/22 01:56:59;;;;;;;0.30;0.30;;;;;;;14.64;100.00;100944.31;4983843;28;20049;-75
2022/09/22 01:59:27;;;;;;;0.40;0.40;;;;;;;14.64;100.00;100947.03;4979523;28;20047;-76
2022/09/22 02:02:01;;;;;;;0.30;0.30;;;;;;;14.64;100.00;100942.44;4985779;28;20118;-76
2022/09/22 02:04:30;;;;;;;0.40;0.40;;;;;;;14.65;100.00;100943.28;4989840;28;20039;-74
2022/09/22 02:07:04;;;;;;;0.30;0.30;;;;;;;14.65;100.00;100938.69;5019246;28;20676;-76
2022/09/22 02:09:32;;;;;;;0.30;0.30;;;;;;;14.64;100.00;100933.50;4970216;28;20038;-73
2022/09/22 02:11:58;;;;;;;0.50;0.50;;;;;;;14.67;100.00;100938.50;4993677;28;20048;-76
2022/09/22 02:14:24;;;;;;;0.25;0.25;;;;;;;14.67;100.00;100933.94;4993964;28;20030;-75
2022/09/22 02:16:51;;;;;;;0.30;0.30;;;;;;;14.68;100.00;100924.75;4982074;28;20124;-74
2022/09/22 02:19:23;;;;;;;0.30;0.30;;;;;;;14.69;100.00;100929.16;4992396;28;20050;-74
2022/09/22 02:21:48;;;;;;;0.28;0.28;;;;;;;14.70;100.00;100928.13;4973081;28;20041;-76
2022/09/22 02:24:32;;;;;;;0.30;0.30;;;;;;;14.73;100.00;100927.72;5009822;28;20080;-76
2022/09/22 02:27:01;;;;;;;0.30;0.30;;;;;;;14.73;100.00;100921.47;5007813;28;20147;-76
2022/09/22 02:29:30;;;;;;;0.20;0.20;;;;;;;14.72;100.00;100909.81;5008841;28;20041;-75
2022/09/22 02:31:57;;;;;;;0.30;0.30;;;;;;;14.73;100.00;100918.75;4990355;28;20112;-73
2022/09/22 02:34:23;;;;;;;0.30;0.30;;;;;;;14.71;100.00;100901.88;4991907;28;20049;-76
2022/09/22 02:37:07;;;;;;;0.30;0.30;;;;;;;14.71;100.00;100899.16;4973001;28;20049;-77
2022/09/22 02:39:33;;;;;;;0.30;0.30;;;;;;;14.68;100.00;100903.13;5009730;28;20109;-76
2022/09/22 02:42:05;;;;;;;0.22;0.22;;;;;;;14.66;100.00;100907.06;5008359;28;20041;-75
2022/09/22 02:44:42;;;;;;;0.28;0.28;;;;;;;14.61;100.00;100891.44;5003250;28;20404;-75
2022/09/22 02:47:12;;;;;;;0.30;0.30;;;;;;;14.59;100.00;100898.91;4991562;28;20411;-75
2022/09/22 02:49:38;;;;;;;0.30;0.30;;;;;;;14.59;100.00;100898.91;5005151;28;22453;-75
2022/09/22 02:52:12;;;;;;;0.30;0.30;;;;;;;14.60;100.00;100899.75;5004634;28;20036;-75
2022/09/22 02:54:38;;;;;;;0.20;0.20;;;;;;;14.57;100.00;100892.03;5004009;28;20042;-75
2022/09/22 02:57:05;;;;;;;0.30;0.30;;;;;;;14.59;100.00;100898.09;4994584;28;20515;-75
2022/09/22 02:59:31;;;;;;;0.30;0.30;;;;;;;14.54;100.00;100893.25;4990126;28;20420;-75
2022/09/22 03:01:56;;;;;;;0.40;0.40;;;;;;;14.52;100.00;100893.44;4970089;28;20037;-77
2022/09/22 03:04:22;;;;;;;0.30;0.30;;;;;;;14.48;100.00;100883.19;5002934;28;20095;-76
2022/09/22 03:06:47;;;;;;;0.43;0.43;;;;;;;14.44;100.00;100896.28;5005269;28;20026;-75
2022/09/22 03:09:15;;;;;;;0.30;0.30;;;;;;;14.40;100.00;100886.91;4971968;28;20468;-75
2022/09/22 03:11:41;;;;;;;0.40;0.40;;;;;;;14.37;100.00;100890.00;5004064;28;20435;-75
2022/09/22 03:14:07;;;;;;;0.40;0.40;;;;;;;14.35;100.00;100880.41;4986905;28;20034;-75
2022/09/22 03:16:33;;;;;;;0.90;0.60;;;;;;;14.34;100.00;100884.97;4975775;28;20392;-75
2022/09/22 03:18:58;;;;;;;0.50;0.50;;;;;;;14.27;100.00;100866.00;5005259;28;20031;-75
2022/09/22 03:21:24;;;;;;;0.30;0.30;;;;;;;14.29;100.00;100876.63;4971577;28;20381;-76
2022/09/22 03:23:50;;;;;;;0.30;0.30;;;;;;;14.29;100.00;100873.94;5010253;28;20041;-74
2022/09/22 03:26:15;;;;;;;0.30;0.30;;;;;;;14.27;100.00;100868.69;4989522;28;20034;-75
2022/09/22 03:28:42;;;;;;;0.30;0.30;;;;;;;14.30;100.00;100867.47;5002777;28;20065;-75
2022/09/22 03:31:13;;;;;;;0.30;0.30;;;;;;;14.32;100.00;100861.88;4988854;28;20046;-75
2022/09/22 03:33:39;;;;;;;0.30;0.30;;;;;;;14.33;100.00;100872.47;4999142;28;20053;-75
2022/09/22 03:36:05;;;;;;;0.30;0.30;;;;;;;14.33;100.00;100866.25;4992608;28;20056;-75
2022/09/22 03:38:31;;;;;;;0.30;0.30;;;;;;;14.33;100.00;100867.06;4988329;28;20401;-75
2022/09/22 03:40:57;;;;;;;0.30;0.30;;;;;;;14.36;100.00;100866.66;4969962;28;20487;-74
2022/09/22 03:43:24;;;;;;;0.30;0.30;;;;;;;14.33;100.00;100864.38;4988541;28;20124;-75
2022/09/22 03:46:00;;;;;;;0.30;0.30;;;;;;;14.36;100.00;100861.25;4976530;28;20046;-75
2022/09/22 03:48:27;;;;;;;0.30;0.30;;;;;;;14.36;100.00;100863.13;4973140;28;20392;-76
2022/09/22 03:50:54;;;;;;;0.30;0.30;;;;;;;14.31;100.00;100861.03;5003340;28;20034;-75
2022/09/22 03:53:19;;;;;;;0.30;0.30;;;;;;;14.32;100.00;100859.19;4991000;28;20484;-75
2022/09/22 03:55:45;;;;;;;0.30;0.30;;;;;;;14.31;100.00;100863.72;4973713;28;20053;-75
2022/09/22 03:58:11;;;;;;;0.30;0.30;;;;;;;14.32;100.00;100851.88;4987203;28;20061;-76
2022/09/22 04:00:37;;;;;;;0.30;0.30;;;;;;;14.30;100.00;100852.06;4998981;28;20042;-75
2022/09/22 04:03:03;;;;;;;0.30;0.30;;;;;;;14.28;100.00;100847.91;4973245;28;20030;-75
2022/09/22 04:05:28;;;;;;;0.30;0.30;;;;;;;14.29;100.00;100855.00;5012762;28;20030;-75
2022/09/22 04:07:54;;;;;;;0.40;0.40;;;;;;;14.29;100.00;100841.47;4986620;28;20038;-75
2022/09/22 04:10:24;;;;;;;0.30;0.30;;;;;;;14.28;100.00;100846.03;4969843;28;20336;-76
2022/09/22 04:12:49;;;;;;;0.30;0.30;;;;;;;14.26;100.00;100844.53;5003263;28;20080;-76
2022/09/22 04:15:15;;;;;;;0.30;0.30;;;;;;;14.27;100.00;100836.25;4987016;28;20133;-75
2022/09/22 04:17:41;;;;;;;0.30;0.30;;;;;;;14.31;100.00;100833.97;4988408;28;20156;-75
2022/09/22 04:20:08;;;;;;;0.20;0.20;;;;;;;14.32;100.00;100826.72;5004384;28;20030;-74
2022/09/22 04:22:34;;;;;;;0.30;0.30;;;;;;;14.28;100.00;100827.09;5008130;28;20475;-76
2022/09/22 04:25:00;;;;;;;0.40;0.40;;;;;;;14.34;100.00;100830.03;5000777;28;20038;-75
2022/09/22 04:27:26;;;;;;;0.30;0.30;;;;;;;14.35;100.00;100837.97;4975067;28;20029;-75
2022/09/22 04:29:51;;;;;;;0.30;0.30;;;;;;;14.34;100.00;100838.97;4970518;28;20045;-75
2022/09/22 04:32:17;;;;;;;0.30;0.30;;;;;;;14.34;100.00;100838.16;4994968;28;20502;-76
2022/09/22 04:34:43;;;;;;;0.30;0.30;;;;;;;14.32;100.00;100838.38;4999862;28;20037;-77
2022/09/22 04:37:10;;;;;;;0.20;0.20;;;;;;;14.31;100.00;100836.69;4976494;28;20042;-75
2022/09/22 04:39:35;;;;;;;0.30;0.30;;;;;;;14.30;100.00;100835.84;4990435;28;20076;-75
2022/09/22 04:42:02;;;;;;;0.30;0.30;;;;;;;14.30;100.00;100833.13;5015923;28;20065;-76
2022/09/22 04:44:27;;;;;;;0.30;0.30;;;;;;;14.29;100.00;100836.88;4982077;28;20050;-75
2022/09/22 04:46:54;;;;;;;0.30;0.30;;;;;;;14.29;100.00;100839.59;4973752;28;20046;-75
2022/09/22 04:49:20;;;;;;;0.30;0.30;;;;;;;14.28;100.00;100837.06;4989201;28;20037;-75
2022/09/22 04:51:45;;;;;;;0.30;0.30;;;;;;;14.28;100.00;100837.91;4989455;28;20395;-75
2022/09/22 04:54:12;;;;;;;0.30;0.30;;;;;;;14.28;100.00;100829.78;5006284;28;20030;-75
2022/09/22 04:56:38;;;;;;;0.30;0.30;;;;;;;14.29;100.00;100825.25;4973972;28;20042;-76
2022/09/22 04:59:04;;;;;;;0.30;0.30;;;;;;;14.24;100.00;100808.78;4974059;28;20481;-76
2022/09/22 05:01:29;;;;;;;0.30;0.30;;;;;;;14.26;100.00;100798.56;4980258;28;20044;-75
2022/09/22 05:03:55;;;;;;;0.30;0.30;;;;;;;14.24;100.00;100801.50;4993595;28;20030;-75
2022/09/22 05:06:21;;;;;;;0.30;0.30;;;;;;;14.21;100.00;100809.16;5007775;28;20034;-76
2022/09/22 05:08:46;;;;;;;0.32;0.32;;;;;;;14.27;100.00;100827.31;4985092;28;20462;-75
2022/09/22 05:11:12;;;;;;;0.30;0.30;;;;;;;14.27;100.00;100820.03;4991451;28;20060;-75
2022/09/22 05:13:39;;;;;;;0.30;0.30;;;;;;;14.26;100.00;100815.66;4978632;28;20131;-76
2022/09/22 05:16:07;;;;;;;0.30;0.30;;;;;;;14.22;100.00;100808.13;4976316;28;20030;-75
2022/09/22 05:18:33;;;;;;;0.30;0.30;;;;;;;14.25;100.00;100826.66;4994251;28;20491;-75
2022/09/22 05:21:00;;;;;;;0.30;0.30;;;;;;;14.27;100.00;100828.13;4981167;28;20468;-75
2022/09/22 05:23:25;;;;;;;0.30;0.30;;;;;;;14.28;100.00;100820.84;5009512;28;20029;-75
2022/09/22 05:25:51;;;;;;;0.30;0.30;;;;;;;14.26;100.00;100825.63;5007417;28;20026;-75
2022/09/22 05:28:17;;;;;;;0.30;0.30;;;;;;;14.21;100.00;100818.13;4977458;28;20565;-74
2022/09/22 05:30:42;;;;;;;0.30;0.30;;;;;;;14.29;100.00;100817.13;5010150;28;20083;-74
2022/09/22 05:33:08;;;;;;;0.30;0.30;;;;;;;14.28;100.00;100818.16;4976743;28;20036;-75
2022/09/22 05:35:34;;;;;;;0.30;0.30;;;;;;;14.27;100.00;100824.59;5006929;28;20048;-74
2022/09/22 05:37:59;;;;;;;0.40;0.40;;;;;;;14.28;100.00;100828.97;4993796;28;20033;-75
2022/09/22 05:40:25;;;;;;;0.30;0.30;;;;;;;14.28;100.00;100820.84;4975180;28;20026;-74
2022/09/22 05:42:52;;;;;;;0.30;0.30;;;;;;;14.28;100.00;100818.16;4993013;28;20069;-74
2022/09/22 05:45:18;;;;;;;0.30;0.30;;;;;;;14.26;100.00;100821.06;4992476;28;20125;-74
2022/09/22 05:47:44;;;;;;;0.30;0.30;;;;;;;14.21;100.00;100814.56;4991792;28;20031;-75
2022/09/22 05:50:12;;;;;;;0.30;0.30;;;;;;;14.28;100.00;100821.69;5007098;28;20026;-74
2022/09/22 05:52:38;;;;;;;0.30;0.30;;;;;;;14.27;100.00;100824.59;4988242;28;20075;-74
2022/09/22 05:55:04;;;;;;;0.30;0.30;;;;;;;14.26;100.00;100825.63;4986871;28;20034;-74
2022/09/22 05:57:30;;;;;;;0.30;0.30;;;;;;;14.26;100.00;100825.63;4990949;28;20184;-74
2022/09/22 05:59:56;;;;;;;0.22;0.22;;;;;;;14.25;100.00;100822.06;5006704;28;20037;-74
2022/09/22 06:02:23;;;;;;;0.30;0.30;;;;;;;14.21;100.00;100814.56;5003899;28;20022;-74
2022/09/22 06:04:49;;;;;;;0.30;0.30;;;;;;;14.21;100.00;100820.81;5003048;28;20076;-74
2022/09/22 06:07:15;;;;;;;0.30;0.30;;;;;;;14.21;100.00;100818.13;4996826;28;20025;-74
2022/09/22 06:09:41;;;;;;;0.30;0.30;;;;;;;14.20;100.00;100816.44;5004889;28;20491;-74
2022/09/22 06:12:07;;;;;;;0.30;0.30;;;;;;;14.19;100.00;100819.34;4974661;28;20033;-74
2022/09/22 06:14:34;;;;;;;0.20;0.20;;;;;;;14.20;100.00;100818.31;5023938;28;20037;-75
2022/09/22 06:17:00;;;;;;;0.30;0.30;;;;;;;14.20;100.00;100815.59;5010139;28;20041;-74
2022/09/22 06:19:27;;;;;;;0.28;0.28;;;;;;;14.14;100.00;100814.53;4977291;28;20026;-74
2022/09/22 06:21:56;;;;;;;0.30;0.30;;;;;;;14.21;100.00;100822.66;4972339;28;20823;-74
2022/09/22 06:24:22;;;;;;;0.30;0.30;;;;;;;14.21;100.00;100818.13;5005331;28;20113;-75
2022/09/22 06:26:49;;;;;;;0.30;0.30;;;;;;;14.24;100.00;100814.19;5003755;28;20724;-74
2022/09/22 06:29:14;;;;;;;0.30;0.30;;;;;;;14.20;100.00;100813.72;5010532;28;20037;-74
2022/09/22 06:31:40;;;;;;;0.30;0.30;;;;;;;14.21;100.00;100811.84;4973552;28;20061;-74
2022/09/22 06:34:07;;;;;;;0.30;0.30;;;;;;;14.22;100.00;100816.25;5007497;28;20124;-75
2022/09/22 06:36:33;;;;;;;0.30;0.30;;;;;;;14.22;100.00;100817.06;4997826;28;20042;-74
2022/09/22 06:39:00;;;;;;;0.30;0.30;;;;;;;14.27;100.00;100827.31;4989471;28;20091;-75
2022/09/22 06:41:31;;;;;;;0.30;0.30;;;;;;;14.28;100.00;100828.97;4986682;28;20042;-75
2022/09/22 06:43:56;;;;;;;0.22;0.22;;;;;;;14.27;100.00;100827.31;4999889;28;20638;-75
2022/09/22 06:46:26;;;;;;;0.30;0.30;;;;;;;14.28;100.00;100832.50;5001233;28;20481;-76
2022/09/22 06:48:56;;;;;;;0.30;0.30;;;;;;;14.23;100.00;100828.72;4989313;28;20034;-74
2022/09/22 06:51:29;;;;;;;0.30;0.30;;;;;;;14.27;100.00;100843.53;5004230;28;20041;-75
2022/09/22 06:53:55;;;;;;;0.30;0.30;;;;;;;14.21;100.00;100825.38;4993452;28;20145;-74
2022/09/22 06:56:24;;;;;;;0.20;0.20;;;;;;;14.27;100.00;100835.41;4970168;28;20124;-75
2022/09/22 06:58:56;;;;;;;0.30;0.30;;;;;;;14.27;100.00;100838.94;5006437;28;20384;-74
2022/09/22 07:01:22;;;;;;;0.30;0.30;;;;;;;14.28;100.00;100845.19;5003321;28;20079;-74
2022/09/22 07:03:49;;;;;;;0.30;0.30;;;;;;;14.29;100.00;100850.41;5002761;28;20496;-74
2022/09/22 07:06:17;;;;;;;0.30;0.30;;;;;;;14.27;100.00;100857.88;4986551;28;20037;-74
2022/09/22 07:08:47;;;;;;;0.30;0.30;;;;;;;14.32;100.00;100856.47;4984646;28;20095;-74
2022/09/22 07:11:25;;;;;;;0.30;0.30;;;;;;;14.31;100.00;100858.31;5007409;28;20060;-74
2022/09/22 07:13:52;;;;;;;0.30;0.30;;;;;;;14.28;100.00;100853.31;4991264;28;20117;-74
2022/09/22 07:16:19;;;;;;;0.30;0.30;;;;;;;14.36;100.00;100850.44;5016273;28;20030;-74
2022/09/22 07:18:47;;;;;;;0.30;0.30;;;;;;;14.35;100.00;100864.19;5005325;28;20037;-75
2022/09/22 07:21:21;;;;;;;0.30;0.30;;;;;;;14.28;100.00;100853.31;4975428;28;20065;-75
2022/09/22 07:23:48;;;;;;;0.43;0.43;;;;;;;14.30;100.00;100857.47;4992064;28;20060;-75
2022/09/22 07:26:16;;;;;;;0.50;0.50;;;;;;;14.32;100.00;100860.00;4972890;28;20065;-74
2022/09/22 07:28:43;;;;;;;0.30;0.30;;;;;;;14.34;100.00;100862.50;5003214;28;20072;-74
2022/09/22 07:31:13;;;;;;;0.30;0.30;;;;;;;14.30;100.00;100864.78;5005955;28;20034;-74
2022/09/22 07:33:41;;;;;;;0.30;0.30;;;;;;;14.29;100.00;100869.34;4975681;28;20049;-74
2022/09/22 07:36:11;;;;;;;0.30;0.30;;;;;;;14.27;100.00;100867.88;4976201;28;20042;-74
2022/09/22 07:38:40;;;;;;;0.30;0.30;;;;;;;14.25;100.00;100881.59;4999991;28;20049;-75
2022/09/22 07:41:08;;;;;;;0.30;0.30;;;;;;;14.24;100.00;100884.50;4953099;28;20112;-76
2022/09/22 07:43:34;;;;;;;0.40;0.40;;;;;;;14.22;100.00;100892.78;4989822;28;20038;-73
2022/09/22 07:46:00;;;;;;;0.40;0.40;;;;;;;14.21;100.00;100892.97;4981789;28;20187;-74
2022/09/22 07:48:36;;;;;;;0.30;0.30;;;;;;;14.20;100.00;100892.16;4972088;28;20037;-74
2022/09/22 07:51:10;;;;;;;0.60;0.60;;;;;;;14.19;100.00;100895.91;5001781;28;20526;-74
2022/09/22 07:53:38;;;;;;;0.50;0.40;;;;;;;14.17;100.00;100894.41;4987148;28;20033;-75
2022/09/22 07:56:12;;;;;;;0.30;0.30;;;;;;;14.17;100.00;100895.25;5005453;28;20411;-74
2022/09/22 07:58:49;;;;;;;0.30;0.30;;;;;;;14.12;100.00;100896.88;5004453;28;20391;-74
2022/09/22 08:01:15;;;;;;;0.30;0.30;;;;;;;14.06;100.00;100899.31;4980980;28;20042;-74
2022/09/22 08:03:41;;;;;;;0.30;0.30;;;;;;;14.03;100.00;100901.59;4991024;28;20033;-74
2022/09/22 08:06:11;;;;;;;0.30;0.30;;;;;;;14.01;100.00;100903.66;4976428;28;20377;-74
2022/09/22 08:08:38;;;;;;;0.38;0.38;;;;;;;14.00;100.00;100896.59;4989536;28;20037;-74
2022/09/22 08:11:06;;;;;;;0.30;0.30;;;;;;;13.99;100.00;100901.13;5005176;28;20084;-75
2022/09/22 08:13:32;;;;;;;0.30;0.30;;;;;;;14.00;100.00;100902.81;5006642;28;20033;-74
2022/09/22 08:15:58;;;;;;;0.30;0.30;;;;;;;14.03;100.00;100905.13;4980291;28;20038;-74
2022/09/22 08:18:25;;;;;;;0.52;0.52;;;;;;;14.06;100.00;100899.31;4997182;28;20208;-74
2022/09/22 08:20:50;;;;;;;0.30;0.30;;;;;;;14.13;100.00;100912.06;4992470;28;20103;-74
2022/09/22 08:23:16;;;;;;;0.30;0.30;;;;;;;14.21;100.00;100923.59;4971686;28;20707;-75
2022/09/22 08:25:42;;;;;;;0.40;0.40;;;;;;;14.31;100.00;100920.53;4986247;28;20049;-74
2022/09/22 08:28:09;;;;;;;0.30;0.30;;;;;;;14.42;100.00;100928.13;4991338;28;20091;-75
2022/09/22 08:30:35;;;;;;;0.40;0.40;;;;;;;14.51;100.00;100943.16;4975961;28;20384;-74
2022/09/22 08:33:00;;;;;;;0.30;0.30;;;;;;;14.59;100.00;100944.09;4987543;28;20042;-75
2022/09/22 08:35:26;;;;;;;0.30;0.30;;;;;;;14.70;100.00;100951.66;4986289;28;20029;-75
2022/09/22 08:37:52;;;;;;;0.35;0.35;;;;;;;14.74;100.00;100950.22;5005891;28;20589;-75
2022/09/22 08:40:22;;;;;;;0.40;0.40;;;;;;;14.78;100.00;100951.50;4968345;28;20080;-75
2022/09/22 08:42:53;;;;;;;0.30;0.30;;;;;;;14.72;100.00;100946.88;4995344;28;20037;-74
2022/09/22 08:45:34;;;;;;;0.30;0.30;;;;;;;14.67;100.00;100949.34;4987500;28;20038;-77
2022/09/22 08:53:58;;;;;;;0.82;0.52;;;;;;;14.94;100.00;100956.56;4991024;28;20033;-78
2022/09/22 08:56:29;;;;;;;0.30;0.30;;;;;;;15.04;100.00;100956.22;4971106;28;20037;-78
2022/09/22 08:59:17;;;;;;;0.30;0.30;;;;;;;15.12;100.00;100961.47;4984602;28;20034;-78
2022/09/22 09:02:25;;;;;;;0.75;0.43;;;;;;;15.12;100.00;100966.06;4990736;28;20551;-77
2022/09/22 09:05:15;;;;;;;0.30;0.30;;;;;;;15.14;100.00;100969.41;5004671;28;20053;-76
2022/09/22 09:07:59;;;;;;;0.30;0.30;;;;;;;15.29;100.00;100977.38;4999284;28;21901;-76
2022/09/22 09:10:27;;;;;;;0.30;0.30;;;;;;;15.34;100.00;100973.03;5003013;28;20041;-76
2022/09/22 09:13:02;;;;;;;0.30;0.30;;;;;;;15.35;100.00;100969.28;4998167;28;20065;-76
2022/09/22 09:15:40;;;;;;;0.30;0.30;;;;;;;15.42;100.00;100982.03;5001403;28;20112;-76
2022/09/22 09:18:14;;;;;;;0.30;0.30;;;;;;;15.47;100.00;100980.38;4985817;28;20030;-75
2022/09/22 09:20:45;;;;;;;0.35;0.35;;;;;;;15.62;100.00;100985.66;5000025;28;20046;-76
2022/09/22 09:23:25;;;;;;;0.30;0.30;;;;;;;15.72;100.00;100993.44;5005224;28;20056;-79
2022/09/22 09:25:53;;;;;;;0.47;0.47;;;;;;;15.69;100.00;100985.69;5012023;28;20124;-76
2022/09/22 09:28:41;;;;;;;0.68;0.50;;;;;;;15.67;100.00;100987.75;4988233;28;20511;-83
2022/09/22 09:31:42;;;;;;;0.40;0.40;;;;;;;15.61;100.00;100990.25;5006686;28;20042;-75
2022/09/22 09:34:13;;;;;;;0.40;0.40;;;;;;;15.60;100.00;101004.81;4979260;28;20033;-78
2022/09/22 09:36:41;;;;;;;0.30;0.30;;;;;;;15.72;100.00;101013.25;5005728;28;20034;-75
2022/09/22 09:39:13;;;;;;;0.30;0.30;;;;;;;15.82;100.00;101013.69;5024912;28;20053;-76
2022/09/22 09:41:40;;;;;;;0.30;0.30;;;;;;;15.89;100.00;101026.44;5001751;28;20038;-77
2022/09/22 09:44:06;;;;;;;0.32;0.32;;;;;;;15.93;100.00;101030.38;4973615;28;20038;-77
2022/09/22 09:46:38;;;;;;;0.30;0.30;;;;;;;15.73;100.00;101030.34;4993757;28;20029;-77
2022/09/22 09:49:19;;;;;;;0.30;0.30;;;;;;;15.49;100.00;101028.97;5009818;28;20480;-77
2022/09/22 09:51:46;;;;;;;0.30;0.30;;;;;;;15.16;100.00;101025.06;4990488;28;20042;-76
2022/09/22 09:54:15;;;;;;;1.65;0.50;;;;;;;15.26;100.00;101035.50;4989996;28;20117;-77
2022/09/22 09:57:21;;;;;;;0.30;0.30;;;;;;;15.67;100.00;101036.56;4989639;28;20033;-77
2022/09/22 10:02:49;;;;;;;0.40;0.40;;;;;;;16.20;100.00;101040.28;4924288;29;20040;-77
2022/09/22 10:05:15;;;;;;;0.40;0.40;;;;;;;17.47;100.00;101049.19;4982160;28;20042;-77
2022/09/22 10:07:45;;;;;;;0.47;0.47;;;;;;;18.04;100.00;101053.97;4986387;28;20066;-74
2022/09/22 10:10:34;;;;;;;0.30;0.30;;;;;;;18.34;100.00;101049.63;4973658;28;20034;-76
2022/09/22 10:13:03;;;;;;;0.40;0.40;;;;;;;18.27;100.00;101061.59;4979976;28;20717;-76
2022/09/22 10:15:31;;;;;;;0.40;0.40;;;;;;;18.38;100.00;101055.44;5006656;28;20026;-76
2022/09/22 10:17:57;;;;;;;0.40;0.40;;;;;;;18.74;100.00;101053.91;4994013;28;20064;-75
2022/09/22 10:20:25;;;;;;;0.40;0.40;;;;;;;19.49;100.00;101056.53;4988675;28;20042;-75
2022/09/22 10:22:55;;;;;;;0.30;0.30;;;;;;;19.21;100.00;101049.72;4986344;28;20042;-76
2022/09/22 10:25:31;;;;;;;0.95;0.60;;;;;;;18.79;100.00;101044.06;5002653;28;20041;-75
2022/09/22 10:28:02;;;;;;;0.40;0.40;;;;;;;19.14;100.00;101042.69;5003700;28;20037;-76
2022/09/22 10:30:36;;;;;;;0.40;0.40;;;;;;;19.07;100.00;101053.63;4992473;28;20442;-74
2022/09/22 10:33:05;;;;;;;0.50;0.50;;;;;;;19.42;100.00;101053.88;5000786;28;20036;-76
2022/09/22 10:35:35;;;;;;;0.50;0.50;;;;;;;19.73;100.00;101057.53;5009092;28;20284;-74
2022/09/22 10:38:12;;;;;;;0.47;0.47;;;;;;;19.39;100.00;101069.88;5004605;28;20037;-74
2022/09/22 10:40:39;;;;;;;1.25;0.57;;;;;;;19.02;100.00;101065.19;4972703;28;20029;-74
2022/09/22 10:43:16;;;;;;;0.50;0.50;;;;;;;19.21;100.00;101076.13;5006033;28;20776;-75
2022/09/22 10:46:05;;;;;;;0.60;0.60;;;;;;;21.38;89.97;101066.09;5006020;28;20030;-76
2022/09/22 10:48:37;;;;;;;0.55;0.55;;;;;;;20.82;88.51;101054.69;4993651;28;20083;-75
2022/09/22 10:51:06;;;;;;;8.63;1.23;;;;;;;22.58;84.17;101080.81;4987751;28;20073;-74
2022/09/22 10:53:47;;;;;;;2.67;1.23;;;;;;;26.30;70.23;101071.78;5006814;28;20846;-75
2022/09/22 10:56:33;;;;;;;4.22;1.30;;;;;;;25.04;70.77;101073.69;4996811;28;20084;-76
2022/09/22 10:59:08;;;;;;;6.95;1.80;;;;;;;23.00;76.49;101077.69;4988937;28;20061;-75
2022/09/22 11:02:24;;;;;;;5.30;1.17;;;;;;;21.14;83.77;101055.16;5025673;28;20030;-80
2022/09/22 11:12:15;;;;;;;5.95;1.27;;;;;;;20.15;94.15;101072.09;4960109;28;20034;-78
2022/09/22 11:14:26;;;;;;;7.78;1.67;;;;;;;22.51;78.41;101077.38;4998183;28;20063;-78
2022/09/22 11:17:04;;;;;;;2.53;1.27;;;;;;;22.23;79.46;101070.88;4992187;28;20049;-78
2022/09/22 11:23:33;;;;;;;4.05;1.83;;;;;;;23.85;71.68;101081.88;5007003;28;20065;-78
2022/09/22 11:37:25;;;;;;;6.32;1.80;;;;;;;29.12;53.68;101073.44;5003012;28;20057;-79
2022/09/22 11:39:54;;;;;;;4.03;1.30;;;;;;;26.16;58.96;101073.41;4996497;28;20046;-78
2022/09/22 11:42:31;;;;;;;6.57;1.15;;;;;;;25.00;59.42;101084.38;4990620;28;20030;-77
2022/09/22 11:45:29;;;;;;;5.70;1.15;;;;;;;23.38;65.95;101087.00;5003003;28;20369;-77
2022/09/22 11:48:04;;;;;;;5.18;1.17;;;;;;;22.90;65.97;101085.72;5002055;28;20030;-76
2022/09/22 11:51:11;;;;;;;5.57;1.30;;;;;;;22.21;71.03;101078.50;4975587;28;20463;-76
2022/09/22 11:53:40;;;;;;;6.80;1.40;;;;;;;21.78;70.65;101081.72;4996290;28;20033;-80
2022/09/22 12:17:23;;;;;;;2.22;1.10;;;;;;;23.04;75.23;101093.38;4126382;22;20664;-75
2022/09/22 12:23:36;;;;;;;4.03;1.17;;;;;;;22.22;67.53;101095.75;5024172;28;20037;-76
2022/09/22 12:26:04;;;;;;;5.78;1.25;;;;;;;22.14;69.69;101083.25;5022281;28;20029;-76